Time;durP1;ratioP1;P1;durP2;ratioP2;P2;SDS_P1;SDS_P2;PMS_P1;PMS_P2;Temp;Humidity;BMP_temperature;BMP_pressure;BME280_temperature;BME280_humidity;BME280_pressure;Samples;Min_cycle;Max_cycle;Signal;HPM_P1;HPM_P2
2021/04/14 00:00:48;;;;;;;580.45;251.10;;;;;;;;;;5020525;28;20036;-80
2021/04/14 00:03:17;;;;;;;469.85;226.18;;;;;;;;;;4999876;28;20571;-79
2021/04/14 00:05:43;;;;;;;466.67;211.52;;;;;;;;;;5020956;28;20076;-80
2021/04/14 00:08:10;;;;;;;745.30;318.30;;;;;;;;;;4990096;28;20407;-80
2021/04/14 00:10:36;;;;;;;505.40;235.45;;;;;;;;;;5022707;28;20389;-79
2021/04/14 00:13:04;;;;;;;553.03;235.00;;;;;;;;;;5020855;28;20040;-80
2021/04/14 00:15:36;;;;;;;483.60;224.75;;;;;;;;;;5021397;28;20026;-79
2021/04/14 00:18:02;;;;;;;472.10;222.43;;;;;;;;;;5022243;28;20036;-78
2021/04/14 00:20:28;;;;;;;583.20;254.27;;;;;;;;;;5006944;28;20067;-80
2021/04/14 00:22:54;;;;;;;497.58;240.18;;;;;;;;;;5022751;28;20413;-79
2021/04/14 00:25:23;;;;;;;452.05;218.38;;;;;;;;;;5017944;28;20251;-80
2021/04/14 00:27:49;;;;;;;483.50;230.27;;;;;;;;;;5004386;28;20517;-80
2021/04/14 00:30:15;;;;;;;454.58;227.43;;;;;;;;;;5023358;28;20124;-80
2021/04/14 00:32:41;;;;;;;445.17;224.23;;;;;;;;;;5021152;28;20036;-79
2021/04/14 00:35:08;;;;;;;499.70;235.40;;;;;;;;;;5017721;28;20341;-81
2021/04/14 00:37:34;;;;;;;474.10;229.82;;;;;;;;;;5023792;28;20034;-79
2021/04/14 00:40:00;;;;;;;483.30;232.75;;;;;;;;;;4990990;28;20036;-79
2021/04/14 00:42:26;;;;;;;473.00;236.75;;;;;;;;;;5021386;28;20054;-79
2021/04/14 00:44:52;;;;;;;533.28;233.30;;;;;;;;;;5021555;28;20034;-80
2021/04/14 00:47:18;;;;;;;581.50;253.30;;;;;;;;;;5024658;28;20461;-79
2021/04/14 00:49:48;;;;;;;465.83;234.43;;;;;;;;;;5022585;28;20014;-80
2021/04/14 00:52:16;;;;;;;606.17;250.68;;;;;;;;;;5020217;28;20046;-79
2021/04/14 00:54:42;;;;;;;485.05;232.85;;;;;;;;;;5020526;28;20022;-79
2021/04/14 00:57:08;;;;;;;497.58;236.70;;;;;;;;;;5022830;28;20022;-80
2021/04/14 00:59:34;;;;;;;606.67;255.32;;;;;;;;;;4989799;28;20056;-80
2021/04/14 01:02:00;;;;;;;515.90;229.23;;;;;;;;;;5020383;28;20289;-79
2021/04/14 01:04:26;;;;;;;682.47;279.10;;;;;;;;;;5020910;28;20101;-80
2021/04/14 01:06:52;;;;;;;848.77;399.30;;;;;;;;;;5019106;28;20029;-79
2021/04/14 01:09:18;;;;;;;876.53;385.50;;;;;;;;;;5020918;28;20028;-80
2021/04/14 01:11:44;;;;;;;488.35;232.45;;;;;;;;;;4985735;28;20046;-79
2021/04/14 01:14:10;;;;;;;579.70;252.73;;;;;;;;;;5020359;28;20052;-79
2021/04/14 01:16:36;;;;;;;465.05;228.98;;;;;;;;;;4982312;28;20422;-80
2021/04/14 01:19:02;;;;;;;476.63;223.35;;;;;;;;;;5019493;28;20065;-80
2021/04/14 01:21:34;;;;;;;468.52;228.77;;;;;;;;;;5021602;28;20026;-80
2021/04/14 01:24:00;;;;;;;440.05;219.43;;;;;;;;;;4989376;28;20026;-79
2021/04/14 01:26:26;;;;;;;491.52;228.00;;;;;;;;;;4987000;28;20050;-79
2021/04/14 01:28:52;;;;;;;513.13;242.90;;;;;;;;;;4988387;28;20107;-78
2021/04/14 01:31:19;;;;;;;700.22;290.90;;;;;;;;;;4989916;28;20417;-78
2021/04/14 01:33:45;;;;;;;712.30;294.88;;;;;;;;;;5020670;28;20026;-78
2021/04/14 01:36:12;;;;;;;476.38;223.82;;;;;;;;;;5017585;28;20022;-78
2021/04/14 01:38:38;;;;;;;502.95;227.98;;;;;;;;;;4990303;28;20037;-78
2021/04/14 01:41:05;;;;;;;473.55;209.95;;;;;;;;;;5019074;28;20025;-77
2021/04/14 01:43:32;;;;;;;511.75;224.20;;;;;;;;;;5017897;28;20017;-79
2021/04/14 01:45:58;;;;;;;511.75;240.75;;;;;;;;;;4988869;28;20076;-78
2021/04/14 01:48:24;;;;;;;516.63;231.63;;;;;;;;;;5019280;28;20021;-78
2021/04/14 01:50:50;;;;;;;492.02;226.35;;;;;;;;;;5021409;28;20029;-77
2021/04/14 01:53:18;;;;;;;501.58;232.75;;;;;;;;;;5019611;28;20073;-79
2021/04/14 01:55:44;;;;;;;517.40;232.57;;;;;;;;;;5020301;28;20014;-77
2021/04/14 01:58:12;;;;;;;521.45;241.52;;;;;;;;;;5019042;28;20088;-79
2021/04/14 02:00:43;;;;;;;542.15;227.13;;;;;;;;;;5020303;28;20992;-79
2021/04/14 02:03:09;;;;;;;588.17;244.90;;;;;;;;;;4995493;28;20729;-78
2021/04/14 02:05:35;;;;;;;720.83;318.92;;;;;;;;;;5020700;28;20022;-78
2021/04/14 02:08:01;;;;;;;869.73;351.17;;;;;;;;;;5019061;28;20022;-81
2021/04/14 02:10:29;;;;;;;484.55;220.07;;;;;;;;;;5021423;28;20413;-79
2021/04/14 02:12:56;;;;;;;528.38;236.50;;;;;;;;;;5019021;28;20038;-78
2021/04/14 02:15:25;;;;;;;609.28;259.85;;;;;;;;;;5018627;28;20133;-79
2021/04/14 02:17:51;;;;;;;488.23;230.05;;;;;;;;;;5019358;28;20164;-77
2021/04/14 02:20:17;;;;;;;462.33;228.05;;;;;;;;;;5020854;28;20041;-78
2021/04/14 02:22:43;;;;;;;607.58;264.33;;;;;;;;;;5008508;28;20411;-78
2021/04/14 02:25:10;;;;;;;478.90;223.63;;;;;;;;;;5022753;28;20045;-77
2021/04/14 02:27:36;;;;;;;638.30;268.88;;;;;;;;;;5022449;28;20375;-79
2021/04/14 02:30:03;;;;;;;488.20;231.40;;;;;;;;;;5023170;28;20021;-80
2021/04/14 02:32:29;;;;;;;478.20;227.20;;;;;;;;;;5026419;28;20091;-79
2021/04/14 02:34:55;;;;;;;475.25;228.57;;;;;;;;;;5008460;28;20108;-80
2021/04/14 02:37:21;;;;;;;464.05;226.02;;;;;;;;;;5022170;28;20025;-80
2021/04/14 02:39:47;;;;;;;470.75;229.85;;;;;;;;;;5009181;28;20026;-79
2021/04/14 02:42:13;;;;;;;485.23;241.27;;;;;;;;;;5022927;28;20018;-79
2021/04/14 02:44:39;;;;;;;486.27;229.20;;;;;;;;;;5024329;28;20028;-78
2021/04/14 02:47:05;;;;;;;556.15;249.00;;;;;;;;;;5023859;28;20564;-80
2021/04/14 02:49:32;;;;;;;471.17;235.43;;;;;;;;;;5023398;28;20385;-79
2021/04/14 02:51:58;;;;;;;550.97;234.60;;;;;;;;;;5024081;28;20042;-79
2021/04/14 02:54:25;;;;;;;604.22;266.00;;;;;;;;;;5021202;28;20041;-79
2021/04/14 02:56:51;;;;;;;469.77;237.68;;;;;;;;;;5023556;28;20025;-79
2021/04/14 02:59:17;;;;;;;466.20;234.48;;;;;;;;;;5023322;28;20531;-80
2021/04/14 03:01:43;;;;;;;474.13;246.15;;;;;;;;;;5022574;28;20549;-80
2021/04/14 03:04:09;;;;;;;470.13;229.90;;;;;;;;;;5007951;28;20049;-79
2021/04/14 03:06:35;;;;;;;601.63;260.73;;;;;;;;;;5021718;28;20030;-79
2021/04/14 03:09:01;;;;;;;491.52;232.50;;;;;;;;;;5021210;28;20026;-79
2021/04/14 03:11:27;;;;;;;487.73;228.57;;;;;;;;;;5022183;28;20041;-78
2021/04/14 03:13:53;;;;;;;494.00;236.43;;;;;;;;;;5023677;28;20647;-79
2021/04/14 03:16:19;;;;;;;490.52;235.00;;;;;;;;;;5002683;28;20083;-80
2021/04/14 03:18:45;;;;;;;468.48;230.07;;;;;;;;;;5023542;28;20033;-80
2021/04/14 03:21:11;;;;;;;611.72;264.67;;;;;;;;;;5022581;28;20013;-78
2021/04/14 03:23:37;;;;;;;487.40;225.95;;;;;;;;;;5021205;28;20040;-80
2021/04/14 03:26:03;;;;;;;487.38;228.85;;;;;;;;;;5022521;28;20046;-79
2021/04/14 03:28:29;;;;;;;491.83;230.20;;;;;;;;;;5022106;28;20033;-80
2021/04/14 03:30:55;;;;;;;514.40;238.77;;;;;;;;;;5023878;28;20033;-80
2021/04/14 03:33:21;;;;;;;494.83;229.82;;;;;;;;;;5024280;28;20084;-80
2021/04/14 03:35:47;;;;;;;522.92;245.75;;;;;;;;;;5023656;28;20044;-79
2021/04/14 03:38:13;;;;;;;507.95;238.90;;;;;;;;;;5023239;28;20017;-79
2021/04/14 03:40:39;;;;;;;629.60;271.50;;;;;;;;;;5022992;28;20440;-80
2021/04/14 03:43:05;;;;;;;529.05;247.80;;;;;;;;;;4990542;28;20034;-79
2021/04/14 03:45:39;;;;;;;525.55;249.07;;;;;;;;;;5022393;28;20022;-80
2021/04/14 03:48:05;;;;;;;490.73;222.55;;;;;;;;;;5022150;28;20018;-80
2021/04/14 03:50:32;;;;;;;493.90;235.48;;;;;;;;;;5020569;28;20101;-80
2021/04/14 03:53:16;;;;;;;476.60;230.20;;;;;;;;;;5019229;28;20041;-79
2021/04/14 03:55:42;;;;;;;472.38;232.65;;;;;;;;;;5022925;28;20026;-80
2021/04/14 03:58:11;;;;;;;471.55;237.55;;;;;;;;;;5003566;28;21129;-81
2021/04/14 04:00:37;;;;;;;469.88;241.57;;;;;;;;;;5022023;28;20052;-81
2021/04/14 04:03:03;;;;;;;597.38;271.50;;;;;;;;;;5021420;28;20022;-80
2021/04/14 04:05:29;;;;;;;469.38;227.63;;;;;;;;;;5023493;28;20073;-80
2021/04/14 04:07:55;;;;;;;512.35;237.10;;;;;;;;;;5021403;28;20061;-82
2021/04/14 04:10:21;;;;;;;597.45;258.08;;;;;;;;;;5005276;28;20037;-80
2021/04/14 04:12:47;;;;;;;610.13;261.15;;;;;;;;;;4989997;28;20095;-80
2021/04/14 04:15:13;;;;;;;511.00;244.15;;;;;;;;;;5022176;28;20029;-80
2021/04/14 04:17:40;;;;;;;518.58;239.73;;;;;;;;;;5021910;28;20053;-80
2021/04/14 04:20:07;;;;;;;608.30;259.08;;;;;;;;;;5023713;28;20014;-80
2021/04/14 04:22:33;;;;;;;469.75;236.43;;;;;;;;;;5020356;28;20030;-80
2021/04/14 04:24:59;;;;;;;478.38;237.93;;;;;;;;;;5023652;28;20539;-80
2021/04/14 04:27:25;;;;;;;434.30;217.93;;;;;;;;;;5023293;28;20049;-78
2021/04/14 04:29:51;;;;;;;443.30;224.18;;;;;;;;;;5019736;28;20040;-79
2021/04/14 04:32:17;;;;;;;455.73;228.68;;;;;;;;;;5021546;28;20479;-80
2021/04/14 04:34:43;;;;;;;439.27;220.98;;;;;;;;;;5023474;28;20129;-80
2021/04/14 04:37:09;;;;;;;456.10;237.18;;;;;;;;;;5022283;28;20105;-81
2021/04/14 04:39:35;;;;;;;453.33;229.98;;;;;;;;;;5020632;28;20053;-80
2021/04/14 04:42:01;;;;;;;588.38;260.80;;;;;;;;;;5006854;28;20022;-79
2021/04/14 04:44:27;;;;;;;482.38;229.07;;;;;;;;;;5009500;28;20038;-80
2021/04/14 04:46:53;;;;;;;484.55;238.18;;;;;;;;;;4993013;28;20034;-80
2021/04/14 04:49:19;;;;;;;508.83;231.27;;;;;;;;;;5023758;28;20037;-80
2021/04/14 04:51:45;;;;;;;614.97;269.00;;;;;;;;;;5008039;28;20033;-80
2021/04/14 04:54:12;;;;;;;621.95;267.95;;;;;;;;;;5020744;28;20026;-81
2021/04/14 04:56:38;;;;;;;475.05;240.05;;;;;;;;;;5024853;28;20033;-79
2021/04/14 04:59:04;;;;;;;469.88;232.38;;;;;;;;;;5023565;28;20496;-81
2021/04/14 05:01:30;;;;;;;494.85;226.07;;;;;;;;;;5022373;28;20339;-80
2021/04/14 05:03:56;;;;;;;568.97;249.65;;;;;;;;;;5001985;28;20017;-80
2021/04/14 05:06:22;;;;;;;444.48;225.73;;;;;;;;;;5022944;28;20022;-78
2021/04/14 05:08:48;;;;;;;455.52;224.80;;;;;;;;;;4990661;28;20026;-80
2021/04/14 05:11:14;;;;;;;591.20;261.08;;;;;;;;;;5023693;28;20508;-80
2021/04/14 05:13:40;;;;;;;457.10;232.65;;;;;;;;;;4993028;28;20037;-80
2021/04/14 05:16:06;;;;;;;586.10;249.38;;;;;;;;;;5025592;28;20372;-80
2021/04/14 05:18:34;;;;;;;470.13;244.45;;;;;;;;;;5024763;28;20030;-81
2021/04/14 05:21:00;;;;;;;447.83;225.90;;;;;;;;;;5018313;28;20080;-80
2021/04/14 05:23:26;;;;;;;456.58;230.48;;;;;;;;;;5000406;28;20394;-80
2021/04/14 05:25:52;;;;;;;477.13;248.48;;;;;;;;;;5021773;28;20032;-79
2021/04/14 05:28:20;;;;;;;446.70;228.63;;;;;;;;;;4998712;28;20034;-81
2021/04/14 05:30:47;;;;;;;493.48;227.82;;;;;;;;;;4991508;28;20049;-81
2021/04/14 05:33:13;;;;;;;474.30;233.48;;;;;;;;;;5004279;28;20451;-80
2021/04/14 05:35:40;;;;;;;487.13;241.02;;;;;;;;;;4995475;28;20054;-81
2021/04/14 05:38:07;;;;;;;470.90;231.63;;;;;;;;;;4991073;28;20109;-80
2021/04/14 05:40:33;;;;;;;454.73;229.98;;;;;;;;;;5020648;28;20536;-79
2021/04/14 05:42:59;;;;;;;432.92;232.60;;;;;;;;;;5019926;28;20030;-80
2021/04/14 05:45:30;;;;;;;440.58;223.25;;;;;;;;;;5018709;28;20057;-80
2021/04/14 05:47:56;;;;;;;434.98;236.57;;;;;;;;;;5021593;28;20045;-80
2021/04/14 05:50:24;;;;;;;427.05;230.68;;;;;;;;;;5021782;28;20026;-80
2021/04/14 05:52:50;;;;;;;430.13;234.55;;;;;;;;;;5020959;28;20070;-80
2021/04/14 05:55:18;;;;;;;427.23;229.32;;;;;;;;;;5024817;28;20032;-79
2021/04/14 05:57:44;;;;;;;437.70;235.32;;;;;;;;;;4992910;28;20030;-81
2021/04/14 06:00:13;;;;;;;440.25;228.65;;;;;;;;;;5023244;28;20026;-80
2021/04/14 06:02:42;;;;;;;438.33;231.23;;;;;;;;;;5016647;28;20030;-81
2021/04/14 06:05:08;;;;;;;429.98;227.63;;;;;;;;;;5017060;28;20108;-80
2021/04/14 06:07:34;;;;;;;425.95;223.88;;;;;;;;;;5026258;28;20037;-80
2021/04/14 06:10:00;;;;;;;438.92;235.55;;;;;;;;;;5036545;28;20033;-80
2021/04/14 06:12:26;;;;;;;431.40;228.60;;;;;;;;;;5027954;28;20022;-79
2021/04/14 06:14:52;;;;;;;442.38;234.95;;;;;;;;;;5029076;28;20025;-79
2021/04/14 06:17:18;;;;;;;433.20;224.48;;;;;;;;;;5026998;28;20021;-80
2021/04/14 06:19:44;;;;;;;434.27;237.90;;;;;;;;;;5013610;28;20030;-79
2021/04/14 06:22:10;;;;;;;425.90;233.50;;;;;;;;;;5029990;28;20026;-80
2021/04/14 06:24:36;;;;;;;430.85;234.05;;;;;;;;;;4996154;28;20113;-80
2021/04/14 06:27:05;;;;;;;446.90;242.18;;;;;;;;;;5029420;28;20030;-79
2021/04/14 06:29:31;;;;;;;451.88;243.23;;;;;;;;;;4994387;28;20055;-79
2021/04/14 06:31:59;;;;;;;438.95;232.10;;;;;;;;;;5027285;28;20397;-79
2021/04/14 06:34:26;;;;;;;437.23;235.70;;;;;;;;;;4992070;28;20087;-84
2021/04/14 06:36:56;;;;;;;437.50;236.90;;;;;;;;;;5025480;28;20054;-81
2021/04/14 06:39:25;;;;;;;439.83;243.32;;;;;;;;;;4995758;28;20030;-80
2021/04/14 06:42:32;;;;;;;433.65;233.10;;;;;;;;;;5028756;28;20037;-79
2021/04/14 06:44:57;;;;;;;450.38;236.13;;;;;;;;;;5006799;28;20037;-80
2021/04/14 06:47:42;;;;;;;440.13;243.95;;;;;;;;;;4996744;28;20026;-81
2021/04/14 06:50:11;;;;;;;444.73;247.35;;;;;;;;;;5011332;28;20040;-80
2021/04/14 06:52:46;;;;;;;447.35;253.85;;;;;;;;;;5028033;28;20080;-80
2021/04/14 06:55:14;;;;;;;446.02;242.35;;;;;;;;;;5007073;28;20409;-81
2021/04/14 06:57:43;;;;;;;447.25;252.00;;;;;;;;;;5026135;28;20030;-80
2021/04/14 07:00:11;;;;;;;458.10;249.60;;;;;;;;;;4994728;28;20037;-81
2021/04/14 07:02:57;;;;;;;491.42;278.40;;;;;;;;;;4991985;28;20048;-83
2021/04/14 07:05:24;;;;;;;470.42;250.55;;;;;;;;;;5006097;28;20026;-80
2021/04/14 07:07:52;;;;;;;501.42;261.85;;;;;;;;;;4993918;28;20026;-80
2021/04/14 07:10:26;;;;;;;529.08;268.75;;;;;;;;;;5028025;28;20041;-80
2021/04/14 07:12:56;;;;;;;524.45;267.13;;;;;;;;;;5026361;28;20074;-81
2021/04/14 07:15:22;;;;;;;609.88;307.48;;;;;;;;;;4994805;28;20018;-78
2021/04/14 07:17:58;;;;;;;479.45;255.23;;;;;;;;;;4993854;28;20049;-78
2021/04/14 07:20:27;;;;;;;500.33;267.38;;;;;;;;;;5025297;28;20037;-80
2021/04/14 07:23:13;;;;;;;618.25;318.67;;;;;;;;;;4991054;28;20026;-80
2021/04/14 07:25:44;;;;;;;473.65;257.17;;;;;;;;;;4994324;28;20038;-80
2021/04/14 07:28:26;;;;;;;472.48;264.58;;;;;;;;;;4995585;28;20022;-80
2021/04/14 07:31:03;;;;;;;483.38;262.67;;;;;;;;;;4996701;28;20025;-80
2021/04/14 07:34:02;;;;;;;511.90;261.65;;;;;;;;;;5013117;28;20038;-81
2021/04/14 07:36:52;;;;;;;494.52;268.15;;;;;;;;;;4962051;28;20119;-80
2021/04/14 07:39:18;;;;;;;653.50;330.13;;;;;;;;;;4993089;28;20087;-79
2021/04/14 07:41:59;;;;;;;494.48;273.15;;;;;;;;;;5020191;28;20018;-80
2021/04/14 07:44:40;;;;;;;502.88;275.00;;;;;;;;;;4995436;28;20053;-80
2021/04/14 07:47:06;;;;;;;;;;;;;;;;;;5019962;28;20109;-81
2021/04/14 07:49:34;;;;;;;488.85;267.10;;;;;;;;;;5011844;28;20392;-80
2021/04/14 07:52:00;;;;;;;504.85;278.70;;;;;;;;;;5009299;28;20033;-81
2021/04/14 07:54:36;;;;;;;563.38;303.35;;;;;;;;;;5004435;28;20080;-80
2021/04/14 07:57:03;;;;;;;680.00;365.02;;;;;;;;;;4993929;28;20025;-83
2021/04/14 07:59:30;;;;;;;483.73;274.02;;;;;;;;;;4994862;28;20079;-79
2021/04/14 08:01:56;;;;;;;492.88;280.98;;;;;;;;;;5011899;28;20018;-80
2021/04/14 08:04:28;;;;;;;551.00;318.98;;;;;;;;;;5028080;28;20040;-80
2021/04/14 08:06:54;;;;;;;607.70;354.67;;;;;;;;;;4994977;28;20034;-79
2021/04/14 08:09:21;;;;;;;672.55;399.83;;;;;;;;;;5028162;28;20030;-80
2021/04/14 08:11:49;;;;;;;701.65;425.75;;;;;;;;;;5001269;28;20025;-78
2021/04/14 08:14:24;;;;;;;754.10;483.75;;;;;;;;;;4994077;28;20026;-79
2021/04/14 08:16:52;;;;;;;596.08;374.83;;;;;;;;;;4992456;28;20029;-78
2021/04/14 08:19:22;;;;;;;568.63;371.02;;;;;;;;;;4995345;28;20156;-79
2021/04/14 08:22:06;;;;;;;862.75;681.28;;;;;;;;;;5005779;28;20528;-80
2021/04/14 08:24:40;;;;;;;547.85;386.85;;;;;;;;;;5001015;28;20068;-79
2021/04/14 08:27:13;;;;;;;581.10;419.98;;;;;;;;;;5008814;28;20041;-80
2021/04/14 08:29:40;;;;;;;591.03;432.88;;;;;;;;;;5006016;28;20034;-80
2021/04/14 08:32:14;;;;;;;543.70;401.90;;;;;;;;;;4973157;28;20350;-80
2021/04/14 08:34:41;;;;;;;525.72;393.20;;;;;;;;;;4971573;28;20568;-79
2021/04/14 08:37:13;;;;;;;570.55;428.45;;;;;;;;;;4970297;28;20022;-79
2021/04/14 08:39:42;;;;;;;579.92;422.27;;;;;;;;;;4973545;28;20053;-80
2021/04/14 08:42:27;;;;;;;645.08;467.75;;;;;;;;;;4975006;28;20025;-79
2021/04/14 08:44:55;;;;;;;532.67;367.80;;;;;;;;;;4986398;28;20022;-81
2021/04/14 08:47:26;;;;;;;510.52;353.70;;;;;;;;;;4973495;28;20026;-81
2021/04/14 08:49:58;;;;;;;524.88;365.42;;;;;;;;;;5007815;28;20053;-79
2021/04/14 08:52:26;;;;;;;539.92;372.80;;;;;;;;;;4974132;28;20057;-79
2021/04/14 08:54:53;;;;;;;690.53;490.10;;;;;;;;;;4975294;28;20013;-80
2021/04/14 08:57:19;;;;;;;736.75;546.67;;;;;;;;;;4964612;28;20030;-79
2021/04/14 08:59:45;;;;;;;549.13;391.77;;;;;;;;;;4974112;28;20038;-78
2021/04/14 09:02:15;;;;;;;769.70;587.80;;;;;;;;;;4975079;28;20034;-79
2021/04/14 09:04:45;;;;;;;665.80;507.52;;;;;;;;;;4971516;28;20030;-78
2021/04/14 09:07:14;;;;;;;595.63;453.80;;;;;;;;;;4963203;28;20037;-79
2021/04/14 09:09:46;;;;;;;716.95;564.40;;;;;;;;;;4974467;28;20022;-79
2021/04/14 09:12:13;;;;;;;543.67;407.10;;;;;;;;;;4973791;28;20019;-79
2021/04/14 09:14:40;;;;;;;536.08;402.02;;;;;;;;;;4976049;28;20109;-79
2021/04/14 09:17:16;;;;;;;654.10;485.38;;;;;;;;;;5006037;28;20763;-79
2021/04/14 09:19:46;;;;;;;620.72;474.35;;;;;;;;;;5007238;28;20447;-80
2021/04/14 09:22:24;;;;;;;799.08;696.58;;;;;;;;;;4974124;28;20620;-79
2021/04/14 09:24:53;;;;;;;568.95;460.27;;;;;;;;;;5004266;28;20072;-80
2021/04/14 09:27:44;;;;;;;593.63;496.10;;;;;;;;;;4990271;28;20034;-80
2021/04/14 09:30:28;;;;;;;834.20;745.80;;;;;;;;;;5020102;28;20038;-88
2021/04/14 09:32:57;;;;;;;574.13;492.85;;;;;;;;;;4990128;28;20582;-80
2021/04/14 09:35:29;;;;;;;627.58;547.35;;;;;;;;;;4987347;28;20188;-79
2021/04/14 09:38:07;;;;;;;638.60;554.47;;;;;;;;;;4985242;28;20022;-81
2021/04/14 09:40:36;;;;;;;671.50;588.22;;;;;;;;;;4988551;28;20022;-81
2021/04/14 09:50:07;;;;;;;;;;;;;;;;;;;;;
2021/04/14 09:56:19;;;;;;;;;;;;;;;;;;;;;
2021/04/14 10:17:46;;;;;;;589.53;500.63;;;;;;;;;;4840869;29;20119;-87
2021/04/14 10:20:36;;;;;;;552.85;453.33;;;;;;;;;;4946829;28;20702;-85
2021/04/14 10:27:42;;;;;;;517.05;414.55;;;;;;;;;;4999878;28;20044;-88
2021/04/14 10:33:46;;;;;;;;;;;;;;;;;;;;;
2021/04/14 10:49:01;;;;;;;544.00;365.48;;;;;;;;;;4915008;29;20431;-88
2021/04/14 10:51:58;;;;;;;;;;;;;;;;;;;;;
2021/04/14 10:54:58;;;;;;;;;;;;;;;;;;;;;
2021/04/14 11:04:11;;;;;;;994.20;892.38;;;;;;;;;;4938233;29;20347;-87
2021/04/14 11:13:27;;;;;;;629.60;498.00;;;;;;;;;;5014836;28;20084;-88
2021/04/14 11:16:01;;;;;;;564.45;432.20;;;;;;;;;;5030533;28;20022;-86
2021/04/14 11:18:40;;;;;;;557.70;417.17;;;;;;;;;;5014296;28;20462;-87
2021/04/14 11:21:23;;;;;;;571.25;416.55;;;;;;;;;;4997167;28;20034;-85
2021/04/14 11:23:49;;;;;;;604.42;433.42;;;;;;;;;;5030603;28;20559;-81
2021/04/14 11:26:30;;;;;;;561.67;395.48;;;;;;;;;;5029794;28;20076;-86
2021/04/14 11:28:58;;;;;;;549.17;387.27;;;;;;;;;;5010694;28;20041;-83
2021/04/14 11:31:53;;;;;;;528.55;362.45;;;;;;;;;;5031722;28;20026;-86
2021/04/14 11:34:28;;;;;;;516.53;343.58;;;;;;;;;;4994363;28;20051;-84
2021/04/14 11:37:31;;;;;;;501.05;332.80;;;;;;;;;;4996985;28;20477;-87
2021/04/14 11:40:01;;;;;;;504.48;328.20;;;;;;;;;;5025030;28;20315;-86
2021/04/14 11:42:30;;;;;;;;;;;;;;;;;;5019486;28;20189;-86
2021/04/14 11:45:19;;;;;;;506.85;314.77;;;;;;;;;;4994982;28;19960;-83
2021/04/14 11:47:47;;;;;;;536.42;337.33;;;;;;;;;;4994472;28;20030;-87
2021/04/14 11:50:14;;;;;;;506.85;322.05;;;;;;;;;;5017535;28;20184;-82
2021/04/14 11:55:50;;;;;;;514.22;329.55;;;;;;;;;;5013097;28;20029;-85
2021/04/14 11:58:45;;;;;;;519.25;335.63;;;;;;;;;;4997438;28;20026;-85
2021/04/14 12:01:30;;;;;;;531.83;342.98;;;;;;;;;;4977461;28;20125;-84
2021/04/14 12:03:56;;;;;;;538.95;356.45;;;;;;;;;;5018779;28;20072;-83
2021/04/14 12:06:31;;;;;;;509.92;351.65;;;;;;;;;;4992544;28;20037;-85
2021/04/14 12:08:58;;;;;;;518.80;370.30;;;;;;;;;;5013051;28;20021;-88
2021/04/14 12:11:30;;;;;;;524.28;371.52;;;;;;;;;;4999391;28;20034;-85
2021/04/14 12:14:19;;;;;;;522.03;372.13;;;;;;;;;;5021686;28;20472;-86
2021/04/14 12:17:12;;;;;;;528.80;371.92;;;;;;;;;;5029722;28;20022;-87
2021/04/14 12:22:51;;;;;;;512.25;379.90;;;;;;;;;;4971813;28;20102;-85
2021/04/14 12:28:56;;;;;;;516.03;399.08;;;;;;;;;;4970890;28;20034;-85
2021/04/14 12:53:44;;;;;;;518.22;368.77;;;;;;;;;;4860087;29;20033;-84
2021/04/14 13:09:47;;;;;;;554.45;371.38;;;;;;;;;;5019450;28;20109;-87
2021/04/14 13:19:57;;;;;;;;;;;;;;;;;;;;;
2021/04/14 13:25:27;;;;;;;;;;;;;;;;;;;;;
2021/04/14 13:38:02;;;;;;;;;;;;;;;;;;;;;
2021/04/14 13:47:18;;;;;;;500.27;384.00;;;;;;;;;;4916976;29;20103;-88
2021/04/14 13:56:02;;;;;;;503.90;397.83;;;;;;;;;;4932632;29;20095;-84
2021/04/14 13:58:36;;;;;;;498.17;388.60;;;;;;;;;;4966989;28;20351;-84
2021/04/14 14:01:03;;;;;;;518.55;402.40;;;;;;;;;;4990268;28;20029;-85
2021/04/14 14:03:50;;;;;;;524.30;393.48;;;;;;;;;;5027050;28;20038;-83
2021/04/14 14:06:21;;;;;;;487.20;359.08;;;;;;;;;;5027776;28;20041;-84
2021/04/14 14:08:48;;;;;;;789.90;621.50;;;;;;;;;;4995805;28;20235;-85
2021/04/14 14:11:30;;;;;;;552.30;376.83;;;;;;;;;;4995103;28;20113;-86
2021/04/14 14:14:07;;;;;;;580.63;387.08;;;;;;;;;;4978528;28;20069;-85
2021/04/14 14:16:52;;;;;;;520.47;335.58;;;;;;;;;;4969925;28;20042;-84
2021/04/14 14:19:37;;;;;;;472.70;308.92;;;;;;;;;;4990930;28;20072;-84
2021/04/14 14:22:28;;;;;;;531.45;338.23;;;;;;;;;;4977150;28;20146;-83
2021/04/14 14:24:57;;;;;;;479.83;307.25;;;;;;;;;;4975796;28;20026;-85
2021/04/14 14:27:23;;;;;;;606.33;377.92;;;;;;;;;;4977746;28;20138;-84
2021/04/14 14:29:55;;;;;;;536.75;334.83;;;;;;;;;;4999060;28;20057;-85
2021/04/14 14:32:23;;;;;;;832.97;557.20;;;;;;;;;;4963711;28;20031;-83
2021/04/14 14:34:55;;;;;;;517.35;314.13;;;;;;;;;;4958236;28;20054;-82
2021/04/14 14:37:48;;;;;;;502.50;310.38;;;;;;;;;;4990261;28;20018;-84
2021/04/14 14:40:18;;;;;;;575.83;343.58;;;;;;;;;;4991150;28;20053;-86
2021/04/14 14:42:49;;;;;;;723.92;437.10;;;;;;;;;;5019944;28;20030;-84
2021/04/14 14:45:38;;;;;;;516.78;310.85;;;;;;;;;;5002361;28;20029;-83
2021/04/14 14:48:06;;;;;;;507.10;304.77;;;;;;;;;;5021209;28;20319;-84
2021/04/14 14:50:37;;;;;;;552.38;332.90;;;;;;;;;;5027087;28;20021;-83
2021/04/14 14:53:20;;;;;;;464.25;294.23;;;;;;;;;;5028867;28;20116;-81
2021/04/14 14:55:46;;;;;;;456.33;282.35;;;;;;;;;;5029208;28;20027;-84
2021/04/14 14:58:25;;;;;;;449.65;285.10;;;;;;;;;;4996786;28;20389;-84
2021/04/14 15:01:03;;;;;;;454.20;289.60;;;;;;;;;;4997192;28;20034;-83
2021/04/14 15:03:33;;;;;;;444.77;279.85;;;;;;;;;;5020397;28;20026;-86
2021/04/14 15:05:59;;;;;;;630.17;373.00;;;;;;;;;;4995756;28;20041;-83
2021/04/14 15:08:25;;;;;;;536.72;311.02;;;;;;;;;;5017332;28;20026;-83
2021/04/14 15:10:51;;;;;;;677.45;409.40;;;;;;;;;;4986372;28;20069;-85
2021/04/14 15:13:17;;;;;;;518.38;305.27;;;;;;;;;;4996296;28;20034;-82
2021/04/14 15:15:45;;;;;;;522.53;307.45;;;;;;;;;;4996620;28;20045;-85
2021/04/14 15:18:11;;;;;;;654.15;396.85;;;;;;;;;;4995154;28;20022;-85
2021/04/14 15:20:40;;;;;;;570.25;336.27;;;;;;;;;;5028434;28;20046;-83
2021/04/14 15:23:08;;;;;;;557.88;332.65;;;;;;;;;;5022128;28;20014;-88
2021/04/14 15:25:45;;;;;;;517.05;303.80;;;;;;;;;;5027445;28;20038;-84
2021/04/14 15:28:11;;;;;;;473.70;288.15;;;;;;;;;;5015763;28;20385;-85
2021/04/14 15:30:43;;;;;;;541.03;322.52;;;;;;;;;;4992884;28;20123;-85
2021/04/14 15:33:09;;;;;;;623.85;371.42;;;;;;;;;;5026007;28;20335;-84
2021/04/14 15:35:37;;;;;;;530.30;326.27;;;;;;;;;;5025663;28;20072;-83
2021/04/14 15:38:12;;;;;;;512.83;312.48;;;;;;;;;;4995194;28;20028;-89
2021/04/14 15:40:38;;;;;;;505.17;312.05;;;;;;;;;;4988668;28;20026;-85
2021/04/14 15:43:06;;;;;;;581.35;361.75;;;;;;;;;;4989043;28;20057;-82
2021/04/14 15:45:33;;;;;;;640.17;400.00;;;;;;;;;;5004134;28;20036;-83
2021/04/14 15:47:59;;;;;;;530.67;329.75;;;;;;;;;;4988301;28;20030;-83
2021/04/14 15:50:27;;;;;;;478.60;304.88;;;;;;;;;;5007728;28;20169;-83
2021/04/14 15:52:56;;;;;;;486.40;309.27;;;;;;;;;;5031294;28;20072;-84
2021/04/14 15:55:25;;;;;;;486.50;303.15;;;;;;;;;;5025123;28;20026;-84
2021/04/14 15:57:59;;;;;;;506.40;306.92;;;;;;;;;;5027381;28;20326;-87
2021/04/14 16:00:32;;;;;;;476.05;296.30;;;;;;;;;;5006244;28;20072;-85
2021/04/14 16:02:58;;;;;;;496.55;300.42;;;;;;;;;;5027618;28;20462;-82
2021/04/14 16:05:26;;;;;;;463.33;296.25;;;;;;;;;;5024750;28;20037;-81
2021/04/14 16:07:53;;;;;;;454.10;288.17;;;;;;;;;;4993018;28;20037;-81
2021/04/14 16:10:21;;;;;;;590.20;351.75;;;;;;;;;;5022259;28;20052;-82
2021/04/14 16:12:56;;;;;;;548.25;326.30;;;;;;;;;;4994645;28;20457;-85
2021/04/14 16:15:22;;;;;;;480.85;299.05;;;;;;;;;;5025991;28;20021;-83
2021/04/14 16:18:00;;;;;;;454.33;283.33;;;;;;;;;;4997829;28;20045;-85
2021/04/14 16:20:29;;;;;;;497.63;297.42;;;;;;;;;;5004617;28;20027;-83
2021/04/14 16:22:57;;;;;;;497.25;294.23;;;;;;;;;;5026828;28;20124;-85
2021/04/14 16:25:29;;;;;;;524.13;309.65;;;;;;;;;;4996968;28;20652;-83
2021/04/14 16:27:55;;;;;;;472.27;288.98;;;;;;;;;;5001630;28;20512;-85
2021/04/14 16:30:21;;;;;;;618.58;364.45;;;;;;;;;;5022913;28;20462;-84
2021/04/14 16:33:04;;;;;;;498.23;300.35;;;;;;;;;;5027328;28;20407;-84
2021/04/14 16:35:30;;;;;;;493.02;293.80;;;;;;;;;;5002658;28;20037;-85
2021/04/14 16:38:01;;;;;;;462.85;288.73;;;;;;;;;;5031839;28;20014;-85
2021/04/14 16:40:27;;;;;;;500.50;298.10;;;;;;;;;;4993766;28;20032;-83